Portada
METAR-TAF:

METAR-TAF

Aeropuertos :

Teherán, Irán

Aeropuerto Internacional de Mehrabad

latitud: 35-41N, longitud: 051-21E, altitud: 1204 m

Observación

El informe se hizo hace 29 minutos, a las 18:00 UTC
Viento 6 kt del norte-noroeste
Temperatura 31°C
Humedad 7%
Presión 1007 hPa
Visibilidad 10 km o más
sin nubes por debajo de 1500 m y sin presencia de cumulonimbus.

METAR: OIII 221800Z 33006KT CAVOK 31/M09 Q1007 A2974 NOSIG NOSIG

Hora: 22:59 (18:29 UTC)

Pronóstico

El informe se hizo hace 1 hora y 19 minutos, a las 17:10 UTC
Pronóstico válido del 22 a las 18 UTC al 23 a las 24 UTC
Viento 6 kt del oeste-noroeste
Visibilidad 10 km o más
sin nubes por debajo de 1500 m y sin presencia de cumulonimbus.
Temporalmente
del 23 a las 08 UTC al 23 a las 14 UTC
Viento 16 kt del oeste-suroeste

TAF: OIII 221710Z 2218/2324 29003MPS CAVOK TEMPO 2308/2314 25008MPS

Observaciones y pronósticos meteorológicos de más de 4000 aeropuertos (mensajes METAR y TAF).

Los puntos amarillos y rojos representan las estaciones disponibles.

Ponga el ratón en el punto deseado para ver el nombre de la estación.

Haga clic para ver las observaciones y los pronósticos meteorológicos.

Para cambiar el mapa : haga clic en los botones verdes con una cruz de color negro para hacer un zoom, en el botón verde con un guión para alejar o en las flechas verdes para mapas adyacentes.


METAR-TAF: